sensor_id;sensor_type;location;lat;lon;timestamp;P1;durP1;ratioP1;P2;durP2;ratioP2
55728;SDS011;41633;39.720;2.910;2024-02-23T00:03:14;10.45;;;2.38;;
55728;SDS011;41633;39.720;2.910;2024-02-23T00:05:41;8.93;;;2.50;;
55728;SDS011;41633;39.720;2.910;2024-02-23T00:10:35;10.98;;;2.60;;
55728;SDS011;41633;39.720;2.910;2024-02-23T00:13:01;9.43;;;2.47;;
55728;SDS011;41633;39.720;2.910;2024-02-23T00:15:27;10.15;;;2.97;;
55728;SDS011;41633;39.720;2.910;2024-02-23T00:17:55;10.05;;;2.53;;
55728;SDS011;41633;39.720;2.910;2024-02-23T00:20:21;9.75;;;2.55;;
55728;SDS011;41633;39.720;2.910;2024-02-23T00:22:48;10.13;;;2.38;;
55728;SDS011;41633;39.720;2.910;2024-02-23T00:25:16;10.20;;;2.58;;
55728;SDS011;41633;39.720;2.910;2024-02-23T00:27:43;12.23;;;3.10;;
55728;SDS011;41633;39.720;2.910;2024-02-23T00:30:12;10.18;;;2.60;;
55728;SDS011;41633;39.720;2.910;2024-02-23T00:32:39;9.20;;;2.03;;
55728;SDS011;41633;39.720;2.910;2024-02-23T00:35:06;10.18;;;2.47;;
55728;SDS011;41633;39.720;2.910;2024-02-23T00:37:32;10.35;;;2.60;;
55728;SDS011;41633;39.720;2.910;2024-02-23T00:40:04;10.27;;;2.17;;
55728;SDS011;41633;39.720;2.910;2024-02-23T00:42:30;10.88;;;2.38;;
55728;SDS011;41633;39.720;2.910;2024-02-23T00:44:56;9.65;;;2.33;;
55728;SDS011;41633;39.720;2.910;2024-02-23T00:47:24;9.82;;;2.40;;
55728;SDS011;41633;39.720;2.910;2024-02-23T00:49:50;10.15;;;2.50;;
55728;SDS011;41633;39.720;2.910;2024-02-23T00:52:16;11.43;;;2.60;;
55728;SDS011;41633;39.720;2.910;2024-02-23T00:54:43;12.38;;;2.45;;
55728;SDS011;41633;39.720;2.910;2024-02-23T00:57:11;13.55;;;3.20;;
55728;SDS011;41633;39.720;2.910;2024-02-23T00:59:38;10.20;;;2.70;;
55728;SDS011;41633;39.720;2.910;2024-02-23T01:02:08;13.00;;;3.10;;
55728;SDS011;41633;39.720;2.910;2024-02-23T01:04:34;13.60;;;2.97;;
55728;SDS011;41633;39.720;2.910;2024-02-23T01:07:02;12.57;;;2.85;;
55728;SDS011;41633;39.720;2.910;2024-02-23T01:09:29;12.45;;;3.05;;
55728;SDS011;41633;39.720;2.910;2024-02-23T01:14:23;13.68;;;3.50;;
55728;SDS011;41633;39.720;2.910;2024-02-23T01:19:15;16.25;;;3.28;;
55728;SDS011;41633;39.720;2.910;2024-02-23T01:24:07;15.18;;;3.10;;
55728;SDS011;41633;39.720;2.910;2024-02-23T01:26:34;12.38;;;3.03;;
55728;SDS011;41633;39.720;2.910;2024-02-23T01:29:01;13.77;;;3.13;;
55728;SDS011;41633;39.720;2.910;2024-02-23T01:31:29;13.32;;;3.10;;
55728;SDS011;41633;39.720;2.910;2024-02-23T01:33:56;11.55;;;3.08;;
55728;SDS011;41633;39.720;2.910;2024-02-23T01:36:23;13.13;;;3.47;;
55728;SDS011;41633;39.720;2.910;2024-02-23T01:38:50;10.70;;;3.40;;
55728;SDS011;41633;39.720;2.910;2024-02-23T01:41:18;10.95;;;3.00;;
55728;SDS011;41633;39.720;2.910;2024-02-23T01:43:46;10.95;;;3.22;;
55728;SDS011;41633;39.720;2.910;2024-02-23T01:46:14;11.23;;;3.15;;
55728;SDS011;41633;39.720;2.910;2024-02-23T01:48:45;13.55;;;3.40;;
55728;SDS011;41633;39.720;2.910;2024-02-23T01:51:16;15.65;;;3.95;;
55728;SDS011;41633;39.720;2.910;2024-02-23T01:53:44;14.43;;;3.80;;
55728;SDS011;41633;39.720;2.910;2024-02-23T01:56:11;14.75;;;3.58;;
55728;SDS011;41633;39.720;2.910;2024-02-23T01:58:44;16.35;;;3.58;;
55728;SDS011;41633;39.720;2.910;2024-02-23T02:01:16;14.45;;;3.70;;
55728;SDS011;41633;39.720;2.910;2024-02-23T02:03:42;10.90;;;3.42;;
55728;SDS011;41633;39.720;2.910;2024-02-23T02:08:36;15.77;;;4.38;;
55728;SDS011;41633;39.720;2.910;2024-02-23T02:11:04;12.63;;;3.60;;
55728;SDS011;41633;39.720;2.910;2024-02-23T02:13:30;12.75;;;4.13;;
55728;SDS011;41633;39.720;2.910;2024-02-23T02:16:01;13.55;;;3.97;;
55728;SDS011;41633;39.720;2.910;2024-02-23T02:18:27;19.63;;;3.65;;
55728;SDS011;41633;39.720;2.910;2024-02-23T02:23:19;14.20;;;3.90;;
55728;SDS011;41633;39.720;2.910;2024-02-23T02:25:52;13.73;;;3.58;;
55728;SDS011;41633;39.720;2.910;2024-02-23T02:28:18;10.13;;;3.70;;
55728;SDS011;41633;39.720;2.910;2024-02-23T02:30:46;9.38;;;3.38;;
55728;SDS011;41633;39.720;2.910;2024-02-23T02:33:13;11.02;;;3.35;;
55728;SDS011;41633;39.720;2.910;2024-02-23T02:35:39;12.20;;;3.30;;
55728;SDS011;41633;39.720;2.910;2024-02-23T02:40:34;8.85;;;2.92;;
55728;SDS011;41633;39.720;2.910;2024-02-23T02:43:01;11.07;;;3.08;;
55728;SDS011;41633;39.720;2.910;2024-02-23T02:45:27;9.13;;;2.63;;
55728;SDS011;41633;39.720;2.910;2024-02-23T02:47:55;12.00;;;2.90;;
55728;SDS011;41633;39.720;2.910;2024-02-23T02:50:23;6.93;;;1.90;;
55728;SDS011;41633;39.720;2.910;2024-02-23T02:52:49;4.35;;;1.40;;
55728;SDS011;41633;39.720;2.910;2024-02-23T02:55:15;5.53;;;1.83;;
55728;SDS011;41633;39.720;2.910;2024-02-23T02:57:45;7.88;;;2.10;;
55728;SDS011;41633;39.720;2.910;2024-02-23T03:00:13;9.75;;;2.05;;
55728;SDS011;41633;39.720;2.910;2024-02-23T03:02:40;11.30;;;2.30;;
55728;SDS011;41633;39.720;2.910;2024-02-23T03:05:06;6.43;;;1.52;;
55728;SDS011;41633;39.720;2.910;2024-02-23T03:07:32;5.53;;;1.30;;
55728;SDS011;41633;39.720;2.910;2024-02-23T03:10:00;4.35;;;1.00;;
55728;SDS011;41633;39.720;2.910;2024-02-23T03:12:26;3.53;;;0.90;;
55728;SDS011;41633;39.720;2.910;2024-02-23T03:17:21;3.85;;;0.75;;
55728;SDS011;41633;39.720;2.910;2024-02-23T03:19:48;3.70;;;0.80;;
55728;SDS011;41633;39.720;2.910;2024-02-23T03:22:18;5.43;;;1.10;;
55728;SDS011;41633;39.720;2.910;2024-02-23T03:24:46;3.70;;;1.20;;
55728;SDS011;41633;39.720;2.910;2024-02-23T03:27:12;4.60;;;1.23;;
55728;SDS011;41633;39.720;2.910;2024-02-23T03:32:06;6.25;;;1.40;;
55728;SDS011;41633;39.720;2.910;2024-02-23T03:34:35;5.60;;;1.27;;
55728;SDS011;41633;39.720;2.910;2024-02-23T03:37:04;7.40;;;1.80;;
55728;SDS011;41633;39.720;2.910;2024-02-23T03:39:31;5.88;;;1.58;;
55728;SDS011;41633;39.720;2.910;2024-02-23T03:42:00;7.60;;;1.70;;
55728;SDS011;41633;39.720;2.910;2024-02-23T03:44:27;6.10;;;1.20;;
55728;SDS011;41633;39.720;2.910;2024-02-23T03:46:55;6.90;;;1.70;;
55728;SDS011;41633;39.720;2.910;2024-02-23T03:49:23;5.95;;;1.50;;
55728;SDS011;41633;39.720;2.910;2024-02-23T03:51:50;6.68;;;1.50;;
55728;SDS011;41633;39.720;2.910;2024-02-23T03:54:16;7.25;;;1.50;;
55728;SDS011;41633;39.720;2.910;2024-02-23T03:59:10;6.85;;;1.50;;
55728;SDS011;41633;39.720;2.910;2024-02-23T04:01:38;7.88;;;1.80;;
55728;SDS011;41633;39.720;2.910;2024-02-23T04:04:06;6.68;;;1.40;;
55728;SDS011;41633;39.720;2.910;2024-02-23T04:06:34;7.68;;;1.80;;
55728;SDS011;41633;39.720;2.910;2024-02-23T04:09:02;6.95;;;1.77;;
55728;SDS011;41633;39.720;2.910;2024-02-23T04:11:34;6.78;;;1.60;;
55728;SDS011;41633;39.720;2.910;2024-02-23T04:14:02;11.82;;;3.05;;
55728;SDS011;41633;39.720;2.910;2024-02-23T04:16:33;17.10;;;3.83;;
55728;SDS011;41633;39.720;2.910;2024-02-23T04:18:59;17.92;;;4.28;;
55728;SDS011;41633;39.720;2.910;2024-02-23T04:21:26;18.80;;;4.20;;
55728;SDS011;41633;39.720;2.910;2024-02-23T04:23:53;17.05;;;3.90;;
55728;SDS011;41633;39.720;2.910;2024-02-23T04:26:19;20.77;;;4.72;;
55728;SDS011;41633;39.720;2.910;2024-02-23T04:31:11;17.10;;;4.13;;
55728;SDS011;41633;39.720;2.910;2024-02-23T04:36:04;17.60;;;4.28;;
55728;SDS011;41633;39.720;2.910;2024-02-23T04:38:31;18.60;;;4.63;;
55728;SDS011;41633;39.720;2.910;2024-02-23T04:40:57;16.10;;;3.85;;
55728;SDS011;41633;39.720;2.910;2024-02-23T04:43:24;15.07;;;4.45;;
55728;SDS011;41633;39.720;2.910;2024-02-23T04:48:17;20.45;;;4.97;;
55728;SDS011;41633;39.720;2.910;2024-02-23T04:50:43;18.98;;;4.90;;
55728;SDS011;41633;39.720;2.910;2024-02-23T04:53:09;17.80;;;4.68;;
55728;SDS011;41633;39.720;2.910;2024-02-23T04:58:01;20.80;;;4.63;;
55728;SDS011;41633;39.720;2.910;2024-02-23T05:00:28;20.10;;;5.05;;
55728;SDS011;41633;39.720;2.910;2024-02-23T05:02:58;18.50;;;4.68;;
55728;SDS011;41633;39.720;2.910;2024-02-23T05:05:25;19.60;;;4.80;;
55728;SDS011;41633;39.720;2.910;2024-02-23T05:07:52;18.00;;;4.80;;
55728;SDS011;41633;39.720;2.910;2024-02-23T05:10:18;21.67;;;5.30;;
55728;SDS011;41633;39.720;2.910;2024-02-23T05:12:44;20.13;;;5.43;;
55728;SDS011;41633;39.720;2.910;2024-02-23T05:15:10;17.52;;;4.88;;
55728;SDS011;41633;39.720;2.910;2024-02-23T05:20:02;19.02;;;5.20;;
55728;SDS011;41633;39.720;2.910;2024-02-23T05:22:36;16.88;;;4.32;;
55728;SDS011;41633;39.720;2.910;2024-02-23T05:25:02;20.77;;;5.35;;
55728;SDS011;41633;39.720;2.910;2024-02-23T05:27:32;17.40;;;4.88;;
55728;SDS011;41633;39.720;2.910;2024-02-23T05:29:59;19.45;;;5.18;;
55728;SDS011;41633;39.720;2.910;2024-02-23T05:32:27;15.98;;;4.00;;
55728;SDS011;41633;39.720;2.910;2024-02-23T05:34:53;19.13;;;4.85;;
55728;SDS011;41633;39.720;2.910;2024-02-23T05:37:24;18.83;;;5.03;;
55728;SDS011;41633;39.720;2.910;2024-02-23T05:39:52;16.30;;;4.57;;
55728;SDS011;41633;39.720;2.910;2024-02-23T05:42:19;19.13;;;4.78;;
55728;SDS011;41633;39.720;2.910;2024-02-23T05:44:45;21.83;;;5.38;;
55728;SDS011;41633;39.720;2.910;2024-02-23T05:47:14;17.25;;;4.45;;
55728;SDS011;41633;39.720;2.910;2024-02-23T05:49:42;16.33;;;4.20;;
55728;SDS011;41633;39.720;2.910;2024-02-23T05:52:08;16.95;;;4.35;;
55728;SDS011;41633;39.720;2.910;2024-02-23T05:54:36;19.25;;;4.55;;
55728;SDS011;41633;39.720;2.910;2024-02-23T05:57:12;16.05;;;4.60;;
55728;SDS011;41633;39.720;2.910;2024-02-23T05:59:41;13.70;;;3.75;;
55728;SDS011;41633;39.720;2.910;2024-02-23T06:02:07;17.73;;;4.30;;
55728;SDS011;41633;39.720;2.910;2024-02-23T06:04:33;18.70;;;4.20;;
55728;SDS011;41633;39.720;2.910;2024-02-23T06:06:59;16.67;;;4.03;;
55728;SDS011;41633;39.720;2.910;2024-02-23T06:09:25;16.15;;;3.85;;
55728;SDS011;41633;39.720;2.910;2024-02-23T06:11:54;16.23;;;3.92;;
55728;SDS011;41633;39.720;2.910;2024-02-23T06:14:21;13.77;;;3.80;;
55728;SDS011;41633;39.720;2.910;2024-02-23T06:16:48;12.45;;;3.40;;
55728;SDS011;41633;39.720;2.910;2024-02-23T06:19:15;13.15;;;3.30;;
55728;SDS011;41633;39.720;2.910;2024-02-23T06:21:41;11.88;;;3.22;;
55728;SDS011;41633;39.720;2.910;2024-02-23T06:24:08;12.65;;;3.60;;
55728;SDS011;41633;39.720;2.910;2024-02-23T06:26:36;11.43;;;2.75;;
55728;SDS011;41633;39.720;2.910;2024-02-23T06:29:05;9.95;;;2.40;;
55728;SDS011;41633;39.720;2.910;2024-02-23T06:31:34;11.88;;;2.80;;
55728;SDS011;41633;39.720;2.910;2024-02-23T06:36:27;12.52;;;2.88;;
55728;SDS011;41633;39.720;2.910;2024-02-23T06:38:55;16.67;;;3.63;;
55728;SDS011;41633;39.720;2.910;2024-02-23T06:41:22;10.65;;;2.55;;
55728;SDS011;41633;39.720;2.910;2024-02-23T06:43:48;11.57;;;3.00;;
55728;SDS011;41633;39.720;2.910;2024-02-23T06:46:18;10.02;;;2.65;;
55728;SDS011;41633;39.720;2.910;2024-02-23T06:48:47;9.57;;;2.40;;
55728;SDS011;41633;39.720;2.910;2024-02-23T06:51:14;8.85;;;2.15;;
55728;SDS011;41633;39.720;2.910;2024-02-23T06:53:42;9.75;;;2.42;;
55728;SDS011;41633;39.720;2.910;2024-02-23T06:56:09;8.52;;;2.30;;
55728;SDS011;41633;39.720;2.910;2024-02-23T06:58:38;8.18;;;1.90;;
55728;SDS011;41633;39.720;2.910;2024-02-23T07:01:07;8.85;;;2.20;;
55728;SDS011;41633;39.720;2.910;2024-02-23T07:03:36;7.13;;;1.70;;
55728;SDS011;41633;39.720;2.910;2024-02-23T07:06:06;7.38;;;1.70;;
55728;SDS011;41633;39.720;2.910;2024-02-23T07:08:36;8.38;;;2.17;;
55728;SDS011;41633;39.720;2.910;2024-02-23T07:11:04;8.98;;;2.17;;
55728;SDS011;41633;39.720;2.910;2024-02-23T07:13:34;8.73;;;2.00;;
55728;SDS011;41633;39.720;2.910;2024-02-23T07:16:03;9.82;;;2.20;;
55728;SDS011;41633;39.720;2.910;2024-02-23T07:18:29;10.40;;;2.47;;
55728;SDS011;41633;39.720;2.910;2024-02-23T07:20:56;9.45;;;2.30;;
55728;SDS011;41633;39.720;2.910;2024-02-23T07:23:23;8.82;;;2.20;;
55728;SDS011;41633;39.720;2.910;2024-02-23T07:25:50;8.13;;;2.25;;
55728;SDS011;41633;39.720;2.910;2024-02-23T07:28:17;8.07;;;2.28;;
55728;SDS011;41633;39.720;2.910;2024-02-23T07:30:46;9.27;;;2.03;;
55728;SDS011;41633;39.720;2.910;2024-02-23T07:33:12;8.48;;;2.13;;
55728;SDS011;41633;39.720;2.910;2024-02-23T07:35:40;9.35;;;2.00;;
55728;SDS011;41633;39.720;2.910;2024-02-23T07:38:09;8.93;;;2.40;;
55728;SDS011;41633;39.720;2.910;2024-02-23T07:40:36;8.90;;;2.40;;
55728;SDS011;41633;39.720;2.910;2024-02-23T07:43:04;8.32;;;2.20;;
55728;SDS011;41633;39.720;2.910;2024-02-23T07:45:32;9.05;;;2.03;;
55728;SDS011;41633;39.720;2.910;2024-02-23T07:48:03;8.20;;;1.83;;
55728;SDS011;41633;39.720;2.910;2024-02-23T07:50:40;8.43;;;2.25;;
55728;SDS011;41633;39.720;2.910;2024-02-23T07:53:06;9.50;;;2.22;;
55728;SDS011;41633;39.720;2.910;2024-02-23T07:55:33;10.05;;;2.60;;
55728;SDS011;41633;39.720;2.910;2024-02-23T07:57:59;8.35;;;2.00;;
55728;SDS011;41633;39.720;2.910;2024-02-23T08:00:26;9.43;;;2.10;;
55728;SDS011;41633;39.720;2.910;2024-02-23T08:02:54;9.85;;;2.60;;
55728;SDS011;41633;39.720;2.910;2024-02-23T08:05:25;7.93;;;2.10;;
55728;SDS011;41633;39.720;2.910;2024-02-23T08:07:51;9.10;;;2.10;;
55728;SDS011;41633;39.720;2.910;2024-02-23T08:10:20;9.15;;;2.25;;
55728;SDS011;41633;39.720;2.910;2024-02-23T08:12:51;9.88;;;2.38;;
55728;SDS011;41633;39.720;2.910;2024-02-23T08:15:18;10.90;;;2.53;;
55728;SDS011;41633;39.720;2.910;2024-02-23T08:17:45;10.48;;;2.83;;
55728;SDS011;41633;39.720;2.910;2024-02-23T08:20:11;10.63;;;2.67;;
55728;SDS011;41633;39.720;2.910;2024-02-23T08:25:06;10.65;;;2.63;;
55728;SDS011;41633;39.720;2.910;2024-02-23T08:27:34;12.02;;;2.63;;
55728;SDS011;41633;39.720;2.910;2024-02-23T08:30:00;10.88;;;2.50;;
55728;SDS011;41633;39.720;2.910;2024-02-23T08:32:26;15.52;;;3.03;;
55728;SDS011;41633;39.720;2.910;2024-02-23T08:34:55;14.80;;;2.60;;
55728;SDS011;41633;39.720;2.910;2024-02-23T08:37:25;10.82;;;2.67;;
55728;SDS011;41633;39.720;2.910;2024-02-23T08:39:52;10.50;;;2.60;;
55728;SDS011;41633;39.720;2.910;2024-02-23T08:42:19;10.43;;;2.28;;
55728;SDS011;41633;39.720;2.910;2024-02-23T08:47:12;11.52;;;2.83;;
55728;SDS011;41633;39.720;2.910;2024-02-23T08:49:40;10.55;;;2.47;;
55728;SDS011;41633;39.720;2.910;2024-02-23T08:52:07;11.38;;;2.88;;
55728;SDS011;41633;39.720;2.910;2024-02-23T08:54:34;13.70;;;3.08;;
55728;SDS011;41633;39.720;2.910;2024-02-23T08:59:29;9.02;;;2.13;;
55728;SDS011;41633;39.720;2.910;2024-02-23T09:04:21;10.30;;;2.13;;
55728;SDS011;41633;39.720;2.910;2024-02-23T09:06:48;9.23;;;2.38;;
55728;SDS011;41633;39.720;2.910;2024-02-23T09:09:16;9.25;;;2.47;;
55728;SDS011;41633;39.720;2.910;2024-02-23T09:11:42;11.13;;;2.80;;
55728;SDS011;41633;39.720;2.910;2024-02-23T09:14:09;10.27;;;2.13;;
55728;SDS011;41633;39.720;2.910;2024-02-23T09:19:01;12.07;;;2.50;;
55728;SDS011;41633;39.720;2.910;2024-02-23T09:21:28;9.00;;;1.85;;
55728;SDS011;41633;39.720;2.910;2024-02-23T09:26:20;10.07;;;2.22;;
55728;SDS011;41633;39.720;2.910;2024-02-23T09:28:46;10.70;;;2.75;;
55728;SDS011;41633;39.720;2.910;2024-02-23T09:31:13;10.48;;;2.35;;
55728;SDS011;41633;39.720;2.910;2024-02-23T09:33:40;8.85;;;1.90;;
55728;SDS011;41633;39.720;2.910;2024-02-23T09:36:08;10.68;;;2.25;;
55728;SDS011;41633;39.720;2.910;2024-02-23T09:38:36;8.98;;;1.73;;
55728;SDS011;41633;39.720;2.910;2024-02-23T09:41:04;10.10;;;1.95;;
55728;SDS011;41633;39.720;2.910;2024-02-23T09:43:32;10.05;;;1.85;;
55728;SDS011;41633;39.720;2.910;2024-02-23T09:46:00;8.65;;;1.50;;
55728;SDS011;41633;39.720;2.910;2024-02-23T09:48:27;9.70;;;1.95;;
55728;SDS011;41633;39.720;2.910;2024-02-23T09:51:00;9.20;;;1.90;;
55728;SDS011;41633;39.720;2.910;2024-02-23T09:53:27;9.45;;;1.85;;
55728;SDS011;41633;39.720;2.910;2024-02-23T09:55:54;10.13;;;2.10;;
55728;SDS011;41633;39.720;2.910;2024-02-23T09:58:22;8.02;;;1.80;;
55728;SDS011;41633;39.720;2.910;2024-02-23T10:00:50;6.88;;;1.90;;
55728;SDS011;41633;39.720;2.910;2024-02-23T10:03:17;8.50;;;1.98;;
55728;SDS011;41633;39.720;2.910;2024-02-23T10:05:44;11.32;;;1.90;;
55728;SDS011;41633;39.720;2.910;2024-02-23T10:08:12;8.05;;;1.67;;
55728;SDS011;41633;39.720;2.910;2024-02-23T10:10:39;7.22;;;1.60;;
55728;SDS011;41633;39.720;2.910;2024-02-23T10:13:09;9.00;;;2.10;;
55728;SDS011;41633;39.720;2.910;2024-02-23T10:15:35;8.50;;;1.90;;
55728;SDS011;41633;39.720;2.910;2024-02-23T10:18:02;14.35;;;2.08;;
55728;SDS011;41633;39.720;2.910;2024-02-23T10:20:31;11.93;;;2.00;;
55728;SDS011;41633;39.720;2.910;2024-02-23T10:22:58;8.43;;;2.05;;
55728;SDS011;41633;39.720;2.910;2024-02-23T10:25:26;7.82;;;2.22;;
55728;SDS011;41633;39.720;2.910;2024-02-23T10:27:57;12.90;;;3.22;;
55728;SDS011;41633;39.720;2.910;2024-02-23T10:30:26;9.13;;;2.25;;
55728;SDS011;41633;39.720;2.910;2024-02-23T10:32:53;7.70;;;2.10;;
55728;SDS011;41633;39.720;2.910;2024-02-23T10:35:20;7.68;;;1.77;;
55728;SDS011;41633;39.720;2.910;2024-02-23T10:37:49;10.93;;;1.80;;
55728;SDS011;41633;39.720;2.910;2024-02-23T10:40:16;7.05;;;1.55;;
55728;SDS011;41633;39.720;2.910;2024-02-23T10:42:47;8.05;;;1.50;;
55728;SDS011;41633;39.720;2.910;2024-02-23T10:45:16;7.35;;;1.70;;
55728;SDS011;41633;39.720;2.910;2024-02-23T10:47:43;8.20;;;2.33;;
55728;SDS011;41633;39.720;2.910;2024-02-23T10:50:11;6.13;;;1.40;;
55728;SDS011;41633;39.720;2.910;2024-02-23T10:52:42;8.73;;;1.70;;
55728;SDS011;41633;39.720;2.910;2024-02-23T10:55:10;7.95;;;1.73;;
55728;SDS011;41633;39.720;2.910;2024-02-23T10:57:38;12.05;;;1.80;;
55728;SDS011;41633;39.720;2.910;2024-02-23T11:00:07;9.93;;;1.55;;
55728;SDS011;41633;39.720;2.910;2024-02-23T11:02:39;7.07;;;1.40;;
55728;SDS011;41633;39.720;2.910;2024-02-23T11:05:07;11.15;;;1.63;;
55728;SDS011;41633;39.720;2.910;2024-02-23T11:07:40;8.77;;;2.00;;
55728;SDS011;41633;39.720;2.910;2024-02-23T11:10:07;7.57;;;1.77;;
55728;SDS011;41633;39.720;2.910;2024-02-23T11:12:36;7.40;;;1.70;;
55728;SDS011;41633;39.720;2.910;2024-02-23T11:15:03;7.80;;;1.40;;
55728;SDS011;41633;39.720;2.910;2024-02-23T11:17:30;5.85;;;1.45;;
55728;SDS011;41633;39.720;2.910;2024-02-23T11:20:02;6.25;;;1.40;;
55728;SDS011;41633;39.720;2.910;2024-02-23T11:22:31;7.60;;;1.55;;
55728;SDS011;41633;39.720;2.910;2024-02-23T11:25:05;8.48;;;1.80;;
55728;SDS011;41633;39.720;2.910;2024-02-23T11:27:32;6.38;;;1.35;;
55728;SDS011;41633;39.720;2.910;2024-02-23T11:30:08;7.22;;;1.67;;
55728;SDS011;41633;39.720;2.910;2024-02-23T11:32:41;7.53;;;1.40;;
55728;SDS011;41633;39.720;2.910;2024-02-23T11:35:20;7.47;;;1.52;;
55728;SDS011;41633;39.720;2.910;2024-02-23T11:37:55;8.77;;;1.30;;
55728;SDS011;41633;39.720;2.910;2024-02-23T11:40:31;6.90;;;1.58;;
55728;SDS011;41633;39.720;2.910;2024-02-23T11:42:59;8.93;;;1.65;;
55728;SDS011;41633;39.720;2.910;2024-02-23T11:45:27;8.23;;;1.80;;
55728;SDS011;41633;39.720;2.910;2024-02-23T11:47:55;7.97;;;1.55;;
55728;SDS011;41633;39.720;2.910;2024-02-23T11:50:22;4.90;;;1.10;;
55728;SDS011;41633;39.720;2.910;2024-02-23T11:53:06;8.68;;;1.58;;
55728;SDS011;41633;39.720;2.910;2024-02-23T11:55:32;5.68;;;1.20;;
55728;SDS011;41633;39.720;2.910;2024-02-23T11:58:01;8.75;;;1.38;;
55728;SDS011;41633;39.720;2.910;2024-02-23T12:00:28;8.48;;;1.70;;
55728;SDS011;41633;39.720;2.910;2024-02-23T12:02:59;7.20;;;1.60;;
55728;SDS011;41633;39.720;2.910;2024-02-23T12:05:26;7.60;;;1.60;;
55728;SDS011;41633;39.720;2.910;2024-02-23T12:07:53;8.23;;;1.80;;
55728;SDS011;41633;39.720;2.910;2024-02-23T12:10:19;7.82;;;1.92;;
55728;SDS011;41633;39.720;2.910;2024-02-23T12:12:46;9.90;;;1.92;;
55728;SDS011;41633;39.720;2.910;2024-02-23T12:15:18;7.07;;;1.80;;
55728;SDS011;41633;39.720;2.910;2024-02-23T12:17:48;7.45;;;1.40;;
55728;SDS011;41633;39.720;2.910;2024-02-23T12:20:16;7.55;;;1.60;;
55728;SDS011;41633;39.720;2.910;2024-02-23T12:22:42;7.45;;;1.40;;
55728;SDS011;41633;39.720;2.910;2024-02-23T12:25:14;8.40;;;1.75;;
55728;SDS011;41633;39.720;2.910;2024-02-23T12:27:40;10.02;;;2.20;;
55728;SDS011;41633;39.720;2.910;2024-02-23T12:30:12;7.95;;;1.60;;
55728;SDS011;41633;39.720;2.910;2024-02-23T12:32:42;7.45;;;1.20;;
55728;SDS011;41633;39.720;2.910;2024-02-23T12:35:10;6.15;;;1.40;;
55728;SDS011;41633;39.720;2.910;2024-02-23T12:37:37;9.20;;;1.60;;
55728;SDS011;41633;39.720;2.910;2024-02-23T12:40:04;6.13;;;1.30;;
55728;SDS011;41633;39.720;2.910;2024-02-23T12:42:31;7.72;;;1.75;;
55728;SDS011;41633;39.720;2.910;2024-02-23T12:44:58;6.00;;;1.40;;
55728;SDS011;41633;39.720;2.910;2024-02-23T12:47:24;6.72;;;1.42;;
55728;SDS011;41633;39.720;2.910;2024-02-23T12:49:50;7.13;;;1.50;;
55728;SDS011;41633;39.720;2.910;2024-02-23T12:52:16;6.30;;;1.50;;
55728;SDS011;41633;39.720;2.910;2024-02-23T12:54:43;6.63;;;1.08;;
55728;SDS011;41633;39.720;2.910;2024-02-23T12:57:10;8.60;;;1.63;;
55728;SDS011;41633;39.720;2.910;2024-02-23T12:59:39;6.28;;;1.50;;
55728;SDS011;41633;39.720;2.910;2024-02-23T13:02:06;8.77;;;1.52;;
55728;SDS011;41633;39.720;2.910;2024-02-23T13:04:34;6.68;;;1.60;;
55728;SDS011;41633;39.720;2.910;2024-02-23T13:07:01;7.55;;;1.20;;
55728;SDS011;41633;39.720;2.910;2024-02-23T13:09:30;7.22;;;1.58;;
55728;SDS011;41633;39.720;2.910;2024-02-23T13:11:57;5.05;;;1.30;;
55728;SDS011;41633;39.720;2.910;2024-02-23T13:14:26;7.60;;;1.30;;
55728;SDS011;41633;39.720;2.910;2024-02-23T13:16:52;6.45;;;1.48;;
55728;SDS011;41633;39.720;2.910;2024-02-23T13:19:19;6.63;;;1.77;;
55728;SDS011;41633;39.720;2.910;2024-02-23T13:21:45;5.63;;;1.67;;
55728;SDS011;41633;39.720;2.910;2024-02-23T13:24:14;6.13;;;1.35;;
55728;SDS011;41633;39.720;2.910;2024-02-23T13:26:41;7.82;;;1.75;;
55728;SDS011;41633;39.720;2.910;2024-02-23T13:29:08;3.97;;;0.80;;
55728;SDS011;41633;39.720;2.910;2024-02-23T13:31:34;5.07;;;1.17;;
55728;SDS011;41633;39.720;2.910;2024-02-23T13:34:04;6.80;;;1.40;;
55728;SDS011;41633;39.720;2.910;2024-02-23T13:36:30;6.22;;;1.38;;
55728;SDS011;41633;39.720;2.910;2024-02-23T13:38:57;5.47;;;1.48;;
55728;SDS011;41633;39.720;2.910;2024-02-23T13:41:24;7.85;;;2.05;;
55728;SDS011;41633;39.720;2.910;2024-02-23T13:43:52;5.50;;;1.67;;
55728;SDS011;41633;39.720;2.910;2024-02-23T13:46:19;7.95;;;1.30;;
55728;SDS011;41633;39.720;2.910;2024-02-23T13:48:46;5.22;;;1.48;;
55728;SDS011;41633;39.720;2.910;2024-02-23T13:51:16;7.78;;;1.70;;
55728;SDS011;41633;39.720;2.910;2024-02-23T13:53:44;5.43;;;1.10;;
55728;SDS011;41633;39.720;2.910;2024-02-23T13:56:10;4.00;;;1.10;;
55728;SDS011;41633;39.720;2.910;2024-02-23T13:58:37;2.95;;;0.50;;
55728;SDS011;41633;39.720;2.910;2024-02-23T14:01:05;4.63;;;0.80;;
55728;SDS011;41633;39.720;2.910;2024-02-23T14:03:32;2.95;;;0.60;;
55728;SDS011;41633;39.720;2.910;2024-02-23T14:05:59;6.30;;;1.70;;
55728;SDS011;41633;39.720;2.910;2024-02-23T14:08:26;4.22;;;1.00;;
55728;SDS011;41633;39.720;2.910;2024-02-23T14:10:53;5.50;;;1.48;;
55728;SDS011;41633;39.720;2.910;2024-02-23T14:13:19;5.68;;;1.55;;
55728;SDS011;41633;39.720;2.910;2024-02-23T14:15:49;3.88;;;0.80;;
55728;SDS011;41633;39.720;2.910;2024-02-23T14:18:16;5.25;;;1.40;;
55728;SDS011;41633;39.720;2.910;2024-02-23T14:20:45;4.30;;;1.35;;
55728;SDS011;41633;39.720;2.910;2024-02-23T14:23:14;5.15;;;1.50;;
55728;SDS011;41633;39.720;2.910;2024-02-23T14:25:40;4.25;;;1.20;;
55728;SDS011;41633;39.720;2.910;2024-02-23T14:28:08;5.78;;;1.65;;
55728;SDS011;41633;39.720;2.910;2024-02-23T14:30:37;6.68;;;1.90;;
55728;SDS011;41633;39.720;2.910;2024-02-23T14:33:07;6.32;;;1.30;;
55728;SDS011;41633;39.720;2.910;2024-02-23T14:35:33;7.75;;;2.72;;
55728;SDS011;41633;39.720;2.910;2024-02-23T14:37:59;7.93;;;2.55;;
55728;SDS011;41633;39.720;2.910;2024-02-23T14:40:25;5.43;;;1.55;;
55728;SDS011;41633;39.720;2.910;2024-02-23T14:42:51;8.25;;;2.70;;
55728;SDS011;41633;39.720;2.910;2024-02-23T14:45:19;5.70;;;1.77;;
55728;SDS011;41633;39.720;2.910;2024-02-23T14:47:48;8.10;;;3.00;;
55728;SDS011;41633;39.720;2.910;2024-02-23T14:50:16;7.30;;;1.83;;
55728;SDS011;41633;39.720;2.910;2024-02-23T14:52:43;6.60;;;2.30;;
55728;SDS011;41633;39.720;2.910;2024-02-23T14:55:11;8.32;;;2.85;;
55728;SDS011;41633;39.720;2.910;2024-02-23T14:57:38;8.75;;;1.90;;
55728;SDS011;41633;39.720;2.910;2024-02-23T15:00:04;6.97;;;1.30;;
55728;SDS011;41633;39.720;2.910;2024-02-23T15:02:32;8.40;;;2.22;;
55728;SDS011;41633;39.720;2.910;2024-02-23T15:04:58;8.52;;;3.30;;
55728;SDS011;41633;39.720;2.910;2024-02-23T15:07:25;8.48;;;2.67;;
55728;SDS011;41633;39.720;2.910;2024-02-23T15:09:53;5.38;;;1.52;;
55728;SDS011;41633;39.720;2.910;2024-02-23T15:12:19;7.18;;;1.25;;
55728;SDS011;41633;39.720;2.910;2024-02-23T15:14:54;8.35;;;3.25;;
55728;SDS011;41633;39.720;2.910;2024-02-23T15:17:22;7.28;;;2.63;;
55728;SDS011;41633;39.720;2.910;2024-02-23T15:19:49;6.95;;;1.55;;
55728;SDS011;41633;39.720;2.910;2024-02-23T15:22:15;6.45;;;1.65;;
55728;SDS011;41633;39.720;2.910;2024-02-23T15:24:44;5.70;;;1.55;;
55728;SDS011;41633;39.720;2.910;2024-02-23T15:27:15;6.68;;;1.80;;
55728;SDS011;41633;39.720;2.910;2024-02-23T15:29:42;6.93;;;2.28;;
55728;SDS011;41633;39.720;2.910;2024-02-23T15:32:09;6.22;;;2.33;;
55728;SDS011;41633;39.720;2.910;2024-02-23T15:34:35;4.63;;;1.45;;
55728;SDS011;41633;39.720;2.910;2024-02-23T15:37:04;5.00;;;1.13;;
55728;SDS011;41633;39.720;2.910;2024-02-23T15:39:31;6.05;;;2.00;;
55728;SDS011;41633;39.720;2.910;2024-02-23T15:41:57;7.38;;;1.63;;